Terminal Aerodrome Forecast
Issued by NWS

Home | Current Version | Previous Version | Text Only | Print | Product List | Glossary On
Versions: 1 2 3 4 5 6 7 8 9 10 11 12 13 14 15 16
000
FTUS43 KILX 192340
TAFBMI
TAF
KBMI 192340Z 2000/2024 VRB06KT P6SM SCT200
     FM200900 13005KT 4SM BR SKC
     FM201400 19007KT P6SM SCT050=

USA.gov is the U.S. government's official web portal to all federal, state and local government web resources and services.